Time;durP1;ratioP1;P1;durP2;ratioP2;P2;SDS_P1;SDS_P2;PMS_P1;PMS_P2;Temp;Humidity;BMP_temperature;BMP_pressure;BME280_temperature;BME280_humidity;BME280_pressure;Samples;Min_cycle;Max_cycle;Signal;HPM_P1;HPM_P2
2023/09/13 07:36:53;;;;;;;6.10;2.20;;;21.90;99.90;;;;;;4886420;29;20733;-70
2023/09/13 07:39:20;;;;;;;5.22;2.00;;;22.20;99.90;;;;;;4897893;29;20206;-71
2023/09/13 07:41:47;;;;;;;4.10;1.90;;;22.50;99.90;;;;;;4898044;29;20229;-70
2023/09/13 07:44:14;;;;;;;6.63;2.28;;;22.80;99.90;;;;;;4897960;29;20249;-69
2023/09/13 07:46:40;;;;;;;4.95;2.22;;;23.50;99.90;;;;;;4898042;29;20256;-71
2023/09/13 07:49:07;;;;;;;3.97;1.92;;;24.40;99.90;;;;;;4897665;29;20674;-70
2023/09/13 07:51:34;;;;;;;3.90;2.30;;;24.80;99.90;;;;;;4897552;29;20737;-74
2023/09/13 07:54:04;;;;;;;4.35;2.28;;;25.50;99.90;;;;;;4897629;29;20697;-70
2023/09/13 07:56:32;;;;;;;4.55;2.08;;;25.50;99.90;;;;;;4897867;29;20242;-71
2023/09/13 07:58:59;;;;;;;3.00;1.88;;;25.50;99.90;;;;;;4897697;29;20293;-72
2023/09/13 08:01:26;;;;;;;3.78;1.80;;;25.70;99.90;;;;;;4897525;29;20268;-71
2023/09/13 08:03:53;;;;;;;3.50;1.60;;;25.20;99.90;;;;;;4897532;29;20242;-71
2023/09/13 08:06:22;;;;;;;6.15;1.30;;;25.20;99.90;;;;;;4898054;29;20249;-71
2023/09/13 08:08:49;;;;;;;2.80;1.17;;;25.20;99.90;;;;;;4897699;29;20214;-70
2023/09/13 08:11:17;;;;;;;2.00;0.93;;;25.60;99.90;;;;;;4897841;29;20261;-70
2023/09/13 08:13:44;;;;;;;2.85;1.73;;;26.20;99.90;;;;;;4898183;29;20242;-71
2023/09/13 08:16:11;;;;;;;3.72;1.13;;;26.00;99.90;;;;;;4897856;29;20245;-71
2023/09/13 08:18:38;;;;;;;2.95;1.23;;;25.20;99.90;;;;;;4897922;29;20305;-72
2023/09/13 08:21:05;;;;;;;4.13;1.35;;;24.60;99.90;;;;;;4897721;29;20266;-71
2023/09/13 08:23:32;;;;;;;3.03;1.25;;;24.20;99.90;;;;;;4898063;29;20210;-71
2023/09/13 08:25:59;;;;;;;4.35;1.48;;;23.70;99.90;;;;;;4897877;29;20652;-71
2023/09/13 08:28:28;;;;;;;5.03;1.55;;;23.60;99.90;;;;;;4898467;29;20238;-71
2023/09/13 08:30:55;;;;;;;4.07;1.60;;;23.50;99.90;;;;;;4897912;29;20325;-72
2023/09/13 08:33:21;;;;;;;3.88;1.75;;;23.30;99.90;;;;;;4897892;29;20302;-72
2023/09/13 08:35:49;;;;;;;4.35;1.80;;;23.30;99.90;;;;;;4897520;29;20788;-71
2023/09/13 08:38:16;;;;;;;2.70;1.40;;;23.10;99.90;;;;;;4897842;29;20274;-71
2023/09/13 08:40:45;;;;;;;2.55;1.40;;;22.90;99.90;;;;;;4897707;29;20242;-72
2023/09/13 08:43:13;;;;;;;4.47;1.33;;;22.80;99.90;;;;;;4897770;29;20253;-71
2023/09/13 08:45:41;;;;;;;6.18;1.67;;;22.80;99.90;;;;;;4897905;29;20206;-71
2023/09/13 08:48:09;;;;;;;4.47;1.58;;;22.90;99.90;;;;;;4901236;29;20246;-71
2023/09/13 08:50:39;;;;;;;2.88;1.23;;;23.10;99.90;;;;;;4901002;29;20217;-70
2023/09/13 08:53:07;;;;;;;5.15;2.03;;;23.20;99.90;;;;;;4901139;29;20285;-70
2023/09/13 08:55:35;;;;;;;6.53;2.10;;;23.20;99.90;;;;;;4901287;29;20273;-70
2023/09/13 08:58:02;;;;;;;4.05;2.42;;;23.10;99.90;;;;;;4901447;29;20242;-70
2023/09/13 09:00:32;;;;;;;8.05;3.05;;;23.00;99.90;;;;;;4901292;29;20211;-70
2023/09/13 09:03:03;;;;;;;6.53;2.97;;;23.00;99.90;;;;;;4900943;29;20577;-71
2023/09/13 09:05:32;;;;;;;4.72;2.70;;;23.30;99.90;;;;;;4901106;29;20693;-71
2023/09/13 09:08:01;;;;;;;6.22;2.50;;;23.40;99.90;;;;;;4900992;29;20642;-69
2023/09/13 09:10:28;;;;;;;7.45;2.90;;;23.50;99.90;;;;;;4901257;29;20238;-70
2023/09/13 09:12:59;;;;;;;9.98;2.97;;;23.40;99.90;;;;;;4900796;29;20206;-71
2023/09/13 09:15:28;;;;;;;7.20;2.50;;;23.20;99.90;;;;;;4900966;29;20285;-70
2023/09/13 09:17:57;;;;;;;3.38;2.25;;;23.00;99.90;;;;;;4900583;29;20249;-70
2023/09/13 09:20:28;;;;;;;5.45;2.50;;;22.80;99.90;;;;;;4900651;29;20704;-71
2023/09/13 09:22:56;;;;;;;3.78;2.35;;;22.80;99.90;;;;;;4900908;29;20241;-69
2023/09/13 09:25:25;;;;;;;5.28;2.58;;;22.80;99.90;;;;;;4900856;29;20298;-70
2023/09/13 09:27:53;;;;;;;6.72;2.28;;;22.90;99.90;;;;;;4900920;29;20253;-70
2023/09/13 09:30:29;;;;;;;5.97;2.40;;;23.10;99.90;;;;;;4900250;29;20206;-70
2023/09/13 09:33:01;;;;;;;7.65;2.80;;;23.20;99.90;;;;;;4900521;29;20256;-71
2023/09/13 09:35:29;;;;;;;4.03;2.45;;;23.40;99.90;;;;;;4900297;29;20326;-70
2023/09/13 09:37:56;;;;;;;5.75;1.92;;;23.40;99.90;;;;;;4900746;29;20270;-70
2023/09/13 09:40:23;;;;;;;6.88;1.83;;;23.50;99.90;;;;;;4900298;29;20682;-71
2023/09/13 09:42:54;;;;;;;4.72;1.45;;;23.60;99.90;;;;;;4900230;29;20262;-70
2023/09/13 09:45:21;;;;;;;3.65;1.55;;;23.70;99.90;;;;;;4900692;29;20289;-70
2023/09/13 09:47:48;;;;;;;4.82;1.40;;;23.80;99.90;;;;;;4900338;29;20246;-70
2023/09/13 09:50:15;;;;;;;3.80;1.40;;;24.10;99.90;;;;;;4900111;29;20253;-70
2023/09/13 09:52:48;;;;;;;3.33;1.10;;;24.30;99.90;;;;;;4900089;29;20313;-70
2023/09/13 09:55:17;;;;;;;4.80;1.50;;;24.40;99.90;;;;;;4900256;29;20692;-70
2023/09/13 09:57:48;;;;;;;4.07;1.00;;;24.40;99.90;;;;;;4899544;29;20219;-70
2023/09/13 10:00:16;;;;;;;3.28;1.20;;;24.00;99.90;;;;;;4900292;29;20253;-69
2023/09/13 10:02:44;;;;;;;4.68;1.45;;;23.50;99.90;;;;;;4900224;29;20773;-69
2023/09/13 10:05:13;;;;;;;3.92;2.30;;;23.30;99.90;;;;;;4900086;29;20293;-69
2023/09/13 10:07:41;;;;;;;7.10;2.20;;;23.00;99.90;;;;;;4900118;29;20293;-69
2023/09/13 10:10:10;;;;;;;5.50;2.50;;;22.90;99.90;;;;;;4899744;29;20570;-70
2023/09/13 10:12:45;;;;;;;4.78;2.25;;;23.00;99.90;;;;;;4899812;29;20226;-70
2023/09/13 10:15:12;;;;;;;10.20;2.50;;;23.10;99.90;;;;;;4899773;29;20209;-70
2023/09/13 10:17:41;;;;;;;2.65;1.77;;;22.90;99.90;;;;;;4900090;29;20343;-69
2023/09/13 10:20:12;;;;;;;3.33;1.42;;;22.70;99.90;;;;;;4899596;29;20689;-69
2023/09/13 10:22:43;;;;;;;4.78;1.50;;;22.40;99.90;;;;;;4899731;29;20569;-70
2023/09/13 10:25:12;;;;;;;2.95;1.60;;;21.90;99.90;;;;;;4899590;29;20313;-70
2023/09/13 10:27:41;;;;;;;2.53;1.70;;;21.70;99.90;;;;;;4899690;29;20221;-70
2023/09/13 10:30:11;;;;;;;4.20;2.08;;;21.50;99.90;;;;;;4899189;29;20699;-69
2023/09/13 10:32:45;;;;;;;3.85;2.10;;;21.50;99.90;;;;;;4899184;29;20233;-70
2023/09/13 10:35:15;;;;;;;2.20;1.50;;;21.70;99.90;;;;;;4899142;29;20221;-69
2023/09/13 10:37:49;;;;;;;2.53;1.73;;;21.80;99.90;;;;;;4899368;29;20210;-71
2023/09/13 10:40:22;;;;;;;1.90;1.52;;;21.90;99.90;;;;;;4899223;29;20237;-70
2023/09/13 10:42:49;;;;;;;8.00;3.28;;;22.10;99.90;;;;;;4899376;29;20268;-71
2023/09/13 10:45:18;;;;;;;1.98;1.30;;;22.20;99.90;;;;;;4899487;29;20240;-70
2023/09/13 10:47:47;;;;;;;2.80;1.52;;;22.30;99.90;;;;;;4899293;29;20301;-70
2023/09/13 10:50:15;;;;;;;3.55;1.38;;;22.20;99.90;;;;;;4899095;29;20218;-70
2023/09/13 10:52:43;;;;;;;2.55;1.20;;;22.30;99.90;;;;;;4899278;29;20317;-70
2023/09/13 10:55:11;;;;;;;2.13;1.23;;;22.30;99.90;;;;;;4899258;29;20238;-70
2023/09/13 10:57:41;;;;;;;1.65;1.00;;;22.30;99.90;;;;;;4899210;29;20242;-70
2023/09/13 11:00:10;;;;;;;2.65;1.27;;;22.50;99.90;;;;;;4898994;29;20588;-71
2023/09/13 11:02:38;;;;;;;1.17;0.95;;;22.70;99.90;;;;;;4898729;29;20705;-71
2023/09/13 11:05:06;;;;;;;2.67;1.10;;;22.70;99.90;;;;;;4898970;29;20248;-71
2023/09/13 11:07:34;;;;;;;2.72;1.08;;;22.90;99.90;;;;;;4898894;29;20666;-70
2023/09/13 11:10:05;;;;;;;3.83;1.23;;;23.00;99.90;;;;;;4897715;29;20213;-70
2023/09/13 11:12:36;;;;;;;2.92;0.98;;;23.00;99.90;;;;;;4898982;29;20230;-70
2023/09/13 11:15:14;;;;;;;2.60;1.20;;;22.90;99.90;;;;;;4898701;29;20217;-70
2023/09/13 11:17:43;;;;;;;0.98;0.70;;;22.60;99.90;;;;;;4898675;29;20336;-69
2023/09/13 11:20:29;;;;;;;1.10;0.70;;;22.30;99.90;;;;;;4898501;29;20254;-69
2023/09/13 11:23:05;;;;;;;3.75;0.77;;;22.10;99.90;;;;;;4898534;29;20737;-71
2023/09/13 11:25:35;;;;;;;2.15;0.70;;;22.20;99.90;;;;;;4898751;29;20242;-70
2023/09/13 11:28:08;;;;;;;3.20;0.90;;;22.30;99.90;;;;;;4898627;29;20245;-71
2023/09/13 11:30:50;;;;;;;3.05;0.80;;;22.40;99.90;;;;;;4898340;29;20296;-70
2023/09/13 11:33:17;;;;;;;2.10;0.80;;;22.60;99.90;;;;;;4898482;29;20242;-71
2023/09/13 11:35:44;;;;;;;4.10;0.82;;;22.70;99.90;;;;;;4897873;29;20651;-71
2023/09/13 11:38:12;;;;;;;2.47;0.63;;;22.30;99.90;;;;;;4898147;29;20573;-70
2023/09/13 11:40:45;;;;;;;2.45;0.50;;;22.00;99.90;;;;;;4897965;29;20210;-70
2023/09/13 11:43:12;;;;;;;3.80;0.65;;;22.10;99.90;;;;;;4897987;29;20221;-69
2023/09/13 11:45:40;;;;;;;0.95;0.80;;;22.30;99.90;;;;;;4898553;29;20246;-70
2023/09/13 11:48:09;;;;;;;0.40;0.40;;;22.20;99.90;;;;;;4897983;29;20301;-69
2023/09/13 11:50:48;;;;;;;0.90;0.60;;;22.30;99.90;;;;;;4897770;29;20320;-70
2023/09/13 11:53:19;;;;;;;0.82;0.40;;;22.60;99.90;;;;;;4898202;29;20297;-70
2023/09/13 11:55:50;;;;;;;2.03;0.73;;;22.70;99.90;;;;;;4897898;29;20653;-70
2023/09/13 11:58:18;;;;;;;1.83;0.77;;;22.60;99.90;;;;;;4897796;29;20206;-70
2023/09/13 12:00:45;;;;;;;0.63;0.40;;;22.40;99.90;;;;;;4897712;29;20249;-70
2023/09/13 12:03:17;;;;;;;2.15;0.60;;;22.20;99.90;;;;;;4898080;29;20250;-70
2023/09/13 12:05:44;;;;;;;1.02;0.60;;;22.00;99.90;;;;;;4897796;29;20274;-71
2023/09/13 12:08:25;;;;;;;0.65;0.50;;;22.10;99.90;;;;;;4897764;29;20687;-70
2023/09/13 12:10:52;;;;;;;0.98;0.40;;;22.50;99.90;;;;;;4897759;29;20317;-70
2023/09/13 12:13:19;;;;;;;0.50;0.40;;;22.70;99.90;;;;;;4897772;29;20704;-70
2023/09/13 12:16:00;;;;;;;1.30;0.85;;;22.90;99.90;;;;;;4897933;29;20214;-70
2023/09/13 12:18:30;;;;;;;1.27;0.60;;;22.80;99.90;;;;;;4897815;29;20206;-70
2023/09/13 12:20:58;;;;;;;0.82;0.38;;;22.60;99.90;;;;;;4898412;29;20230;-70
2023/09/13 12:23:25;;;;;;;0.77;0.50;;;22.50;99.90;;;;;;4901702;29;20214;-70
2023/09/13 12:25:52;;;;;;;0.40;0.40;;;22.50;99.90;;;;;;4901670;29;20249;-69
2023/09/13 12:28:26;;;;;;;0.70;0.40;;;22.60;99.90;;;;;;4901670;29;20266;-70
2023/09/13 12:30:53;;;;;;;0.50;0.30;;;22.90;99.90;;;;;;4901401;29;20282;-70
2023/09/13 12:33:21;;;;;;;0.77;0.50;;;23.00;99.90;;;;;;4901430;29;20622;-70
2023/09/13 12:35:51;;;;;;;0.60;0.35;;;23.00;99.90;;;;;;4901220;29;20251;-70
2023/09/13 12:38:19;;;;;;;0.40;0.40;;;22.60;99.90;;;;;;4901209;29;20220;-71
2023/09/13 12:40:54;;;;;;;0.40;0.40;;;22.30;99.90;;;;;;4901603;29;20218;-70
2023/09/13 12:43:28;;;;;;;0.43;0.40;;;22.40;99.90;;;;;;4901721;29;20214;-70
2023/09/13 12:45:56;;;;;;;2.17;0.50;;;22.50;99.90;;;;;;4901334;29;20237;-71
2023/09/13 12:48:24;;;;;;;0.45;0.30;;;22.50;99.90;;;;;;4901114;29;20553;-71
2023/09/13 12:50:52;;;;;;;1.77;0.50;;;22.40;99.90;;;;;;4901033;29;20726;-71
2023/09/13 12:53:20;;;;;;;0.30;0.30;;;22.20;99.90;;;;;;4901312;29;20293;-69
2023/09/13 12:55:47;;;;;;;0.63;0.40;;;22.30;99.90;;;;;;4901008;29;20741;-70
2023/09/13 12:58:14;;;;;;;0.70;0.30;;;22.20;99.90;;;;;;4901043;29;20297;-71
2023/09/13 13:00:53;;;;;;;1.35;0.40;;;22.40;99.90;;;;;;4900807;29;20670;-70
2023/09/13 13:03:21;;;;;;;2.15;0.50;;;22.30;99.90;;;;;;4900729;29;20681;-69
2023/09/13 13:05:50;;;;;;;0.50;0.40;;;22.30;99.90;;;;;;4900970;29;20206;-69
2023/09/13 13:08:18;;;;;;;0.50;0.30;;;22.30;99.90;;;;;;4900765;29;20301;-69
2023/09/13 13:10:55;;;;;;;0.82;0.30;;;22.30;99.90;;;;;;4900805;29;20242;-70
2023/09/13 13:13:23;;;;;;;0.50;0.32;;;22.50;99.90;;;;;;4900543;29;20274;-70
2023/09/13 13:15:50;;;;;;;0.73;0.30;;;22.60;99.90;;;;;;4900626;29;20207;-70
2023/09/13 13:18:17;;;;;;;0.60;0.40;;;22.50;99.90;;;;;;4900517;29;20334;-71
2023/09/13 13:20:48;;;;;;;0.45;0.40;;;22.10;99.90;;;;;;4900449;29;20245;-70
2023/09/13 13:23:15;;;;;;;1.30;0.40;;;22.10;99.90;;;;;;4900457;29;20214;-70
2023/09/13 13:25:43;;;;;;;0.63;0.35;;;22.20;99.90;;;;;;4900545;29;20270;-70
2023/09/13 13:28:10;;;;;;;0.40;0.20;;;22.30;99.90;;;;;;4900469;29;20249;-69
2023/09/13 13:30:40;;;;;;;0.50;0.35;;;22.20;99.90;;;;;;4900825;29;20222;-70
2023/09/13 13:33:07;;;;;;;0.82;0.30;;;22.10;99.90;;;;;;4899484;29;20478;-70
2023/09/13 13:35:35;;;;;;;1.27;0.50;;;21.90;99.90;;;;;;4900550;29;20249;-70
2023/09/13 13:38:02;;;;;;;3.63;0.45;;;22.00;99.90;;;;;;4900387;29;20329;-70
2023/09/13 13:40:31;;;;;;;1.05;0.30;;;22.10;99.90;;;;;;4900231;29;20210;-70
2023/09/13 13:42:59;;;;;;;0.80;0.30;;;22.30;99.90;;;;;;4900511;29;20237;-70
2023/09/13 13:45:26;;;;;;;0.65;0.30;;;22.30;99.90;;;;;;4900462;29;20210;-70
2023/09/13 13:47:53;;;;;;;0.50;0.30;;;22.40;99.90;;;;;;4900163;29;20250;-70
2023/09/13 13:50:20;;;;;;;0.30;0.20;;;22.50;99.90;;;;;;4900179;29;20626;-70
2023/09/13 13:52:46;;;;;;;0.52;0.40;;;22.60;99.90;;;;;;4900245;29;20309;-70
2023/09/13 13:55:13;;;;;;;1.65;0.43;;;22.70;99.90;;;;;;4900257;29;20242;-70
2023/09/13 13:57:42;;;;;;;0.73;0.40;;;22.60;99.90;;;;;;4900329;29;20325;-69
2023/09/13 14:00:12;;;;;;;0.95;0.50;;;22.70;99.90;;;;;;4900089;29;20302;-70
2023/09/13 14:02:38;;;;;;;1.05;0.40;;;22.80;99.90;;;;;;4899930;29;20702;-69
2023/09/13 14:05:06;;;;;;;0.47;0.30;;;22.90;99.90;;;;;;4900141;29;20709;-69
2023/09/13 14:07:34;;;;;;;0.50;0.40;;;23.10;99.90;;;;;;4900178;29;20249;-69
2023/09/13 14:10:01;;;;;;;0.80;0.40;;;23.30;99.90;;;;;;4899947;29;20207;-70
2023/09/13 14:12:28;;;;;;;2.35;0.40;;;23.30;99.90;;;;;;4899803;29;20702;-69
2023/09/13 14:14:55;;;;;;;0.40;0.30;;;23.20;99.90;;;;;;4899917;29;20242;-71
2023/09/13 14:17:25;;;;;;;0.50;0.30;;;22.80;99.90;;;;;;4899559;29;20634;-70
2023/09/13 14:19:52;;;;;;;0.70;0.45;;;22.60;99.90;;;;;;4899744;29;20212;-70
2023/09/13 14:22:19;;;;;;;1.80;0.40;;;22.40;99.90;;;;;;4899465;29;20322;-71
2023/09/13 14:24:45;;;;;;;0.65;0.40;;;22.30;99.90;;;;;;4899729;29;20216;-69
2023/09/13 14:27:13;;;;;;;0.50;0.40;;;22.20;99.90;;;;;;4899639;29;20301;-70
2023/09/13 14:29:41;;;;;;;0.55;0.35;;;22.20;99.90;;;;;;4899377;29;20230;-70
2023/09/13 14:32:09;;;;;;;0.73;0.40;;;22.40;99.90;;;;;;4899401;29;20321;-70
2023/09/13 14:34:42;;;;;;;1.08;0.43;;;22.70;99.90;;;;;;4899549;29;20697;-70
2023/09/13 14:37:09;;;;;;;0.50;0.40;;;22.80;99.90;;;;;;4899190;29;20230;-69
2023/09/13 14:39:36;;;;;;;0.90;0.40;;;22.70;99.90;;;;;;4899426;29;20253;-70
2023/09/13 14:42:03;;;;;;;0.50;0.40;;;22.60;99.90;;;;;;4899506;29;20304;-70
2023/09/13 14:44:30;;;;;;;1.60;0.98;;;22.50;99.90;;;;;;4899121;29;20297;-69
2023/09/13 14:46:57;;;;;;;0.80;0.50;;;22.50;99.90;;;;;;4899138;29;20217;-70
2023/09/13 14:49:24;;;;;;;0.40;0.38;;;22.60;99.90;;;;;;4899011;29;20307;-69
2023/09/13 14:51:52;;;;;;;0.40;0.30;;;22.60;99.90;;;;;;4899064;29;20262;-70
2023/09/13 14:54:19;;;;;;;0.65;0.30;;;22.60;99.90;;;;;;4899606;29;20219;-70
2023/09/13 14:56:47;;;;;;;0.70;0.40;;;22.60;99.90;;;;;;4899019;29;20305;-69
2023/09/13 14:59:17;;;;;;;1.15;0.50;;;22.60;99.90;;;;;;4898946;29;20210;-69
2023/09/13 15:01:44;;;;;;;1.30;0.55;;;22.60;99.90;;;;;;4898755;29;20231;-70
2023/09/13 15:04:11;;;;;;;0.65;0.32;;;22.60;99.90;;;;;;4899408;29;20238;-70
2023/09/13 15:06:39;;;;;;;0.60;0.40;;;22.50;99.90;;;;;;4898940;29;20210;-69
2023/09/13 15:09:09;;;;;;;0.38;0.30;;;22.50;99.90;;;;;;4898723;29;20736;-69
2023/09/13 15:11:37;;;;;;;0.60;0.50;;;22.40;99.90;;;;;;4898756;29;20226;-71
2023/09/13 15:14:04;;;;;;;2.15;0.57;;;22.40;99.90;;;;;;4898774;29;20305;-69
2023/09/13 15:16:33;;;;;;;1.65;0.45;;;22.40;99.90;;;;;;4898641;29;20644;-70
2023/09/13 15:19:00;;;;;;;0.38;0.30;;;22.20;99.90;;;;;;4898716;29;20276;-69
2023/09/13 15:21:28;;;;;;;0.82;0.50;;;21.90;99.90;;;;;;4898595;29;20257;-69
2023/09/13 15:23:55;;;;;;;0.85;0.30;;;22.00;99.90;;;;;;4898639;29;20256;-70
2023/09/13 15:26:24;;;;;;;1.00;0.43;;;22.10;99.90;;;;;;4898398;29;20236;-71
2023/09/13 15:28:53;;;;;;;0.70;0.47;;;22.10;99.90;;;;;;4898503;29;20317;-70
2023/09/13 15:31:21;;;;;;;1.23;0.60;;;21.90;99.90;;;;;;4898634;29;20306;-69
2023/09/13 15:33:47;;;;;;;1.02;0.50;;;21.90;99.90;;;;;;4898106;29;20310;-70
2023/09/13 15:36:14;;;;;;;1.35;0.50;;;21.70;99.90;;;;;;4897555;29;20301;-70
2023/09/13 15:38:41;;;;;;;1.50;0.50;;;21.70;99.90;;;;;;4897562;29;20238;-71
2023/09/13 15:41:10;;;;;;;0.90;0.50;;;22.00;99.90;;;;;;4897598;29;20678;-71
2023/09/13 15:43:39;;;;;;;1.85;0.65;;;22.00;99.90;;;;;;4897474;29;20689;-70
2023/09/13 15:46:07;;;;;;;1.20;0.60;;;22.00;99.90;;;;;;4898046;29;20245;-70
2023/09/13 15:48:34;;;;;;;1.00;0.40;;;22.00;99.90;;;;;;4898360;29;20242;-70
2023/09/13 15:51:00;;;;;;;1.45;0.43;;;22.10;99.90;;;;;;4897891;29;20265;-70
2023/09/13 15:53:27;;;;;;;1.05;0.40;;;21.90;99.90;;;;;;4898242;29;20961;-70
2023/09/13 15:55:54;;;;;;;1.00;0.60;;;21.90;99.90;;;;;;4897460;29;20301;-70
2023/09/13 15:58:21;;;;;;;2.22;0.50;;;22.00;99.90;;;;;;4898074;29;20342;-70
2023/09/13 16:00:49;;;;;;;1.40;0.45;;;21.90;99.90;;;;;;4898321;29;20304;-70
2023/09/13 16:03:17;;;;;;;2.67;0.52;;;22.00;99.90;;;;;;4898074;29;20737;-69
2023/09/13 16:05:44;;;;;;;2.45;0.60;;;22.00;99.90;;;;;;4897909;29;20622;-70
2023/09/13 16:08:11;;;;;;;1.52;0.50;;;22.00;99.90;;;;;;4897886;29;20696;-70
2023/09/13 16:10:37;;;;;;;0.55;0.38;;;21.90;99.90;;;;;;4897761;29;20261;-71
2023/09/13 16:13:05;;;;;;;0.63;0.50;;;21.70;99.90;;;;;;4898015;29;20245;-69
2023/09/13 16:15:32;;;;;;;1.52;0.50;;;21.60;99.90;;;;;;4897951;29;20215;-71
2023/09/13 16:18:00;;;;;;;1.10;0.50;;;21.60;99.90;;;;;;4897781;29;20266;-70
2023/09/13 16:20:27;;;;;;;1.13;0.50;;;21.50;99.90;;;;;;4897899;29;20298;-70
2023/09/13 16:22:55;;;;;;;0.95;0.50;;;21.50;99.90;;;;;;4897746;29;20273;-69
2023/09/13 16:25:22;;;;;;;1.92;0.50;;;21.40;99.90;;;;;;4897910;29;20214;-69
2023/09/13 16:27:49;;;;;;;1.33;1.00;;;21.40;99.90;;;;;;4897665;29;20653;-69
2023/09/13 16:30:17;;;;;;;2.05;0.70;;;21.20;99.90;;;;;;4897707;29;20210;-69
2023/09/13 16:32:45;;;;;;;2.13;0.63;;;21.10;99.90;;;;;;4897494;29;20240;-69
2023/09/13 16:35:14;;;;;;;1.35;0.73;;;21.10;99.90;;;;;;4897525;29;20697;-70
2023/09/13 16:37:41;;;;;;;1.15;0.70;;;20.90;99.90;;;;;;4897356;29;20272;-71
2023/09/13 16:40:09;;;;;;;3.72;0.85;;;20.90;99.90;;;;;;4897530;29;20559;-72
2023/09/13 16:42:37;;;;;;;2.67;0.82;;;20.80;99.90;;;;;;4897791;29;20231;-70
2023/09/13 16:45:04;;;;;;;3.92;0.65;;;20.90;99.90;;;;;;4897393;29;20210;-71
2023/09/13 16:47:31;;;;;;;2.63;0.52;;;20.90;99.90;;;;;;4897530;29;20301;-71
2023/09/13 16:49:58;;;;;;;4.63;1.10;;;21.00;99.90;;;;;;4897262;29;20301;-71
2023/09/13 16:52:26;;;;;;;2.05;0.80;;;20.80;99.90;;;;;;4897020;29;20258;-70
2023/09/13 16:54:55;;;;;;;1.65;0.70;;;20.70;99.90;;;;;;4897810;29;20246;-70
2023/09/13 16:57:22;;;;;;;1.27;0.70;;;20.50;99.90;;;;;;4897417;29;20215;-70
2023/09/13 16:59:49;;;;;;;2.38;0.70;;;20.40;99.90;;;;;;4897262;29;20238;-72
2023/09/13 17:02:16;;;;;;;1.23;0.68;;;20.30;99.90;;;;;;4897367;29;20338;-71
2023/09/13 17:04:43;;;;;;;1.52;0.57;;;20.30;99.90;;;;;;4897103;29;20400;-71
2023/09/13 17:07:11;;;;;;;1.30;0.60;;;20.20;99.90;;;;;;4897338;29;20256;-72
2023/09/13 17:09:39;;;;;;;3.05;0.80;;;20.30;99.90;;;;;;4900444;29;20266;-72
2023/09/13 17:12:08;;;;;;;1.52;0.60;;;20.30;99.90;;;;;;4900528;29;20781;-71
2023/09/13 17:14:35;;;;;;;3.03;0.80;;;20.20;99.90;;;;;;4900706;29;20214;-71
2023/09/13 17:17:03;;;;;;;3.47;0.70;;;20.20;99.90;;;;;;4900486;29;20245;-70
2023/09/13 17:19:30;;;;;;;0.93;0.60;;;20.20;99.90;;;;;;4900575;29;20294;-71
2023/09/13 17:21:57;;;;;;;2.30;0.60;;;20.10;99.90;;;;;;4900563;29;20258;-71
2023/09/13 17:24:24;;;;;;;3.80;1.15;;;20.20;99.90;;;;;;4900743;29;20210;-70
2023/09/13 17:26:53;;;;;;;3.28;0.70;;;20.40;99.90;;;;;;4900045;29;20244;-71
2023/09/13 17:29:19;;;;;;;3.60;0.82;;;20.30;99.90;;;;;;4900392;29;20257;-71
2023/09/13 17:31:46;;;;;;;1.30;0.75;;;20.20;99.90;;;;;;4899032;29;20760;-70
2023/09/13 17:34:13;;;;;;;1.48;0.70;;;20.20;99.90;;;;;;4899981;29;20368;-71
2023/09/13 17:36:41;;;;;;;1.25;0.70;;;20.20;99.90;;;;;;4899841;29;20252;-71
2023/09/13 17:39:09;;;;;;;1.83;0.52;;;20.30;99.90;;;;;;4899906;29;20633;-71
2023/09/13 17:41:36;;;;;;;2.50;0.95;;;20.20;99.90;;;;;;4900266;29;20720;-71
2023/09/13 17:44:05;;;;;;;1.70;0.65;;;20.30;99.90;;;;;;4900332;29;20611;-70
2023/09/13 17:46:32;;;;;;;1.73;0.75;;;20.20;99.90;;;;;;4900314;29;20237;-70
2023/09/13 17:49:00;;;;;;;1.27;0.77;;;20.20;99.90;;;;;;4900658;29;20245;-71
2023/09/13 17:51:27;;;;;;;1.65;0.73;;;20.00;99.90;;;;;;4900094;29;20234;-71
2023/09/13 17:53:56;;;;;;;3.22;0.80;;;19.90;99.90;;;;;;4900087;29;20293;-71
2023/09/13 17:56:23;;;;;;;1.10;0.60;;;20.00;99.90;;;;;;4899881;29;20301;-70
2023/09/13 17:58:49;;;;;;;2.63;0.98;;;19.80;99.90;;;;;;4899961;29;20245;-70
2023/09/13 18:01:18;;;;;;;3.42;0.85;;;19.80;99.90;;;;;;4899797;29;20254;-70
2023/09/13 18:03:45;;;;;;;1.90;0.70;;;19.80;99.90;;;;;;4900169;29;20238;-69
2023/09/13 18:06:11;;;;;;;3.35;1.33;;;19.60;99.90;;;;;;4899967;29;20289;-69
2023/09/13 18:08:38;;;;;;;1.35;0.60;;;19.70;99.90;;;;;;4899629;29;20241;-70
2023/09/13 18:11:05;;;;;;;2.13;0.80;;;19.80;99.90;;;;;;4898796;29;20262;-68
2023/09/13 18:13:32;;;;;;;3.85;0.90;;;19.70;99.90;;;;;;4898294;29;20339;-69
2023/09/13 18:15:59;;;;;;;2.80;1.00;;;19.70;99.90;;;;;;4898563;29;20293;-69
2023/09/13 18:18:27;;;;;;;2.72;0.80;;;19.50;99.90;;;;;;4898514;29;20245;-69
2023/09/13 18:20:54;;;;;;;2.63;0.88;;;19.30;99.90;;;;;;4898459;29;20317;-69
2023/09/13 18:23:21;;;;;;;2.35;0.90;;;19.30;99.90;;;;;;4898651;29;20351;-69
2023/09/13 18:25:48;;;;;;;2.50;1.20;;;19.20;99.90;;;;;;4898270;29;20290;-72
2023/09/13 18:28:15;;;;;;;1.27;0.80;;;19.30;99.90;;;;;;4898491;29;20293;-69
2023/09/13 18:30:42;;;;;;;0.90;0.50;;;19.30;99.90;;;;;;4899323;29;20226;-70
2023/09/13 18:33:09;;;;;;;1.63;0.70;;;19.20;99.90;;;;;;4898847;29;20290;-70
2023/09/13 18:35:37;;;;;;;1.70;0.80;;;19.20;99.90;;;;;;4896678;29;20246;-70
2023/09/13 18:38:04;;;;;;;1.67;0.88;;;19.30;99.90;;;;;;4897941;29;20317;-69
2023/09/13 18:40:31;;;;;;;1.63;0.80;;;19.30;99.90;;;;;;4895773;29;20242;-69
2023/09/13 18:43:01;;;;;;;2.00;0.80;;;19.30;99.90;;;;;;4898245;29;20729;-68
2023/09/13 18:45:28;;;;;;;1.80;0.80;;;19.30;99.90;;;;;;4898249;29;20225;-70
2023/09/13 18:47:54;;;;;;;1.95;1.15;;;19.30;99.90;;;;;;4897934;29;20206;-69
2023/09/13 18:50:21;;;;;;;2.88;1.10;;;19.20;99.90;;;;;;4898201;29;20290;-70
2023/09/13 18:52:50;;;;;;;3.10;0.77;;;19.40;99.90;;;;;;4897830;29;20317;-70
2023/09/13 18:55:17;;;;;;;1.25;0.80;;;19.30;99.90;;;;;;4897962;29;20202;-70
2023/09/13 18:57:43;;;;;;;4.82;1.08;;;19.20;99.90;;;;;;4898315;29;20721;-70
2023/09/13 19:00:12;;;;;;;1.33;0.82;;;19.50;99.90;;;;;;4898048;29;20680;-71
2023/09/13 19:02:40;;;;;;;1.63;0.80;;;19.50;99.90;;;;;;4898274;29;20222;-70
2023/09/13 19:05:07;;;;;;;1.60;0.80;;;19.50;99.90;;;;;;4898708;29;20210;-70
2023/09/13 19:07:34;;;;;;;2.35;0.70;;;19.30;99.90;;;;;;4898628;29;20610;-71
2023/09/13 19:10:04;;;;;;;2.90;1.10;;;19.30;99.90;;;;;;4898493;29;20317;-71
2023/09/13 19:12:31;;;;;;;2.53;0.90;;;19.30;99.90;;;;;;4897893;29;20235;-70
2023/09/13 19:14:58;;;;;;;2.60;0.95;;;19.30;99.90;;;;;;4897917;29;20662;-70
2023/09/13 19:17:27;;;;;;;2.55;0.80;;;19.20;99.90;;;;;;4898596;29;20211;-70
2023/09/13 19:19:54;;;;;;;2.78;0.95;;;19.00;99.90;;;;;;4898173;29;20242;-70
2023/09/13 19:22:21;;;;;;;2.10;0.90;;;19.10;99.90;;;;;;4898005;29;20320;-70
2023/09/13 19:24:48;;;;;;;2.08;0.80;;;19.10;99.90;;;;;;4898451;29;20248;-70
2023/09/13 19:27:16;;;;;;;1.45;0.88;;;19.10;99.90;;;;;;4898320;29;20238;-71
2023/09/13 19:29:43;;;;;;;2.35;0.90;;;19.10;99.90;;;;;;4897632;29;20293;-71
2023/09/13 19:32:10;;;;;;;2.97;1.13;;;19.20;99.90;;;;;;4897655;29;20271;-70
2023/09/13 19:34:37;;;;;;;2.92;0.90;;;19.10;99.90;;;;;;4897938;29;20302;-68
2023/09/13 19:37:04;;;;;;;1.65;0.90;;;19.10;99.90;;;;;;4897238;29;20265;-68
2023/09/13 19:39:31;;;;;;;3.65;1.00;;;19.00;99.90;;;;;;4897719;29;20346;-70
2023/09/13 19:41:59;;;;;;;1.70;0.80;;;19.00;99.90;;;;;;4897858;29;20615;-69
2023/09/13 19:44:28;;;;;;;1.77;0.80;;;19.00;99.90;;;;;;4896986;29;20206;-70
2023/09/13 19:46:55;;;;;;;3.13;1.10;;;19.10;99.90;;;;;;4897679;29;20213;-70
2023/09/13 19:49:22;;;;;;;3.60;1.27;;;19.00;99.90;;;;;;4897902;29;20234;-69
2023/09/13 19:51:49;;;;;;;1.63;0.65;;;19.00;99.90;;;;;;4897732;29;20269;-69
2023/09/13 19:54:16;;;;;;;1.95;0.82;;;19.10;99.90;;;;;;4897920;29;20241;-69
2023/09/13 19:56:42;;;;;;;3.78;1.15;;;19.00;99.90;;;;;;4897910;29;20289;-69
2023/09/13 19:59:10;;;;;;;1.92;0.80;;;19.00;99.90;;;;;;4897714;29;20321;-70
2023/09/13 20:01:38;;;;;;;1.98;0.80;;;19.00;99.90;;;;;;4897563;29;20286;-69
2023/09/13 20:04:05;;;;;;;1.92;1.00;;;18.90;99.90;;;;;;4897785;29;20690;-69
2023/09/13 20:06:35;;;;;;;2.60;1.13;;;18.80;99.90;;;;;;4897146;29;20253;-69
2023/09/13 20:09:02;;;;;;;2.13;1.10;;;18.80;99.90;;;;;;4897905;29;20220;-70
2023/09/13 20:11:29;;;;;;;2.72;1.10;;;18.60;99.90;;;;;;4897563;29;20241;-70
2023/09/13 20:13:58;;;;;;;2.35;0.85;;;18.70;99.90;;;;;;4897567;29;20210;-69
2023/09/13 20:16:25;;;;;;;1.55;0.85;;;18.60;99.90;;;;;;4897291;29;20246;-69
2023/09/13 20:18:54;;;;;;;2.20;1.10;;;18.50;99.90;;;;;;4896897;29;20325;-70
2023/09/13 20:21:20;;;;;;;3.38;1.20;;;18.50;99.90;;;;;;4896996;29;20639;-69
2023/09/13 20:23:47;;;;;;;3.00;1.20;;;18.50;99.90;;;;;;4897170;29;20234;-69
2023/09/13 20:26:15;;;;;;;1.88;1.10;;;18.50;99.90;;;;;;4897073;29;20206;-69
2023/09/13 20:28:42;;;;;;;2.22;0.93;;;18.40;99.90;;;;;;4897036;29;20242;-69
